sensor_id;sensor_type;location;lat;lon;timestamp;pressure;altitude;pressure_sealevel;temperature;humidity
75699;BME280;64313;51.018;13.742;2022-12-29T00:01:58;99086.78;;;8.42;64.92
75699;BME280;64313;51.018;13.742;2022-12-29T00:04:24;99081.84;;;8.46;64.85
75699;BME280;64313;51.018;13.742;2022-12-29T00:06:49;99082.06;;;8.51;64.73
75699;BME280;64313;51.018;13.742;2022-12-29T00:09:16;99081.88;;;8.53;64.38
75699;BME280;64313;51.018;13.742;2022-12-29T00:11:42;99075.34;;;8.55;64.45
75699;BME280;64313;51.018;13.742;2022-12-29T00:14:11;99071.44;;;8.58;64.25
75699;BME280;64313;51.018;13.742;2022-12-29T00:16:55;99075.53;;;8.60;64.72
75699;BME280;64313;51.018;13.742;2022-12-29T00:19:21;99069.00;;;8.63;64.61
75699;BME280;64313;51.018;13.742;2022-12-29T00:22:05;99091.13;;;8.63;64.56
75699;BME280;64313;51.018;13.742;2022-12-29T00:24:49;99088.03;;;8.66;64.08
75699;BME280;64313;51.018;13.742;2022-12-29T00:27:27;99084.16;;;8.69;64.28
75699;BME280;64313;51.018;13.742;2022-12-29T00:30:19;99063.47;;;8.71;64.14
75699;BME280;64313;51.018;13.742;2022-12-29T00:33:09;99047.47;;;8.71;64.12
75699;BME280;64313;51.018;13.742;2022-12-29T00:35:59;99051.56;;;8.74;63.80
75699;BME280;64313;51.018;13.742;2022-12-29T00:38:26;99058.34;;;8.76;64.08
75699;BME280;64313;51.018;13.742;2022-12-29T00:41:10;99059.16;;;8.77;64.01
75699;BME280;64313;51.018;13.742;2022-12-29T00:43:54;99053.63;;;8.78;63.69
75699;BME280;64313;51.018;13.742;2022-12-29T00:46:33;99063.06;;;8.81;63.56
75699;BME280;64313;51.018;13.742;2022-12-29T00:48:59;99046.03;;;8.82;63.93
75699;BME280;64313;51.018;13.742;2022-12-29T00:51:43;99055.50;;;8.84;64.19
75699;BME280;64313;51.018;13.742;2022-12-29T00:54:09;99038.47;;;8.85;64.58
75699;BME280;64313;51.018;13.742;2022-12-29T00:56:34;99034.56;;;8.88;65.25
75699;BME280;64313;51.018;13.742;2022-12-29T00:59:05;99024.53;;;8.90;65.90
75699;BME280;64313;51.018;13.742;2022-12-29T01:01:31;99029.88;;;8.90;66.62
75699;BME280;64313;51.018;13.742;2022-12-29T01:03:57;99031.72;;;8.90;66.78
75699;BME280;64313;51.018;13.742;2022-12-29T01:06:23;99029.88;;;8.90;67.23
75699;BME280;64313;51.018;13.742;2022-12-29T01:08:50;99027.41;;;8.88;67.50
75699;BME280;64313;51.018;13.742;2022-12-29T01:11:36;99026.38;;;8.90;67.69
75699;BME280;64313;51.018;13.742;2022-12-29T01:14:01;99025.78;;;8.87;68.17
75699;BME280;64313;51.018;13.742;2022-12-29T01:16:27;99021.44;;;8.86;68.08
75699;BME280;64313;51.018;13.742;2022-12-29T01:18:54;99038.47;;;8.85;68.28
75699;BME280;64313;51.018;13.742;2022-12-29T01:21:20;99026.19;;;8.84;68.16
75699;BME280;64313;51.018;13.742;2022-12-29T01:23:45;99024.72;;;8.82;68.57
75699;BME280;64313;51.018;13.742;2022-12-29T01:26:12;99030.91;;;8.82;68.63
75699;BME280;64313;51.018;13.742;2022-12-29T01:28:39;99025.75;;;8.81;68.87
75699;BME280;64313;51.018;13.742;2022-12-29T01:31:06;99027.00;;;8.78;69.13
75699;BME280;64313;51.018;13.742;2022-12-29T01:33:31;99026.19;;;8.78;69.05
75699;BME280;64313;51.018;13.742;2022-12-29T01:36:04;99029.66;;;8.78;69.21
75699;BME280;64313;51.018;13.742;2022-12-29T01:38:30;99028.03;;;8.77;69.24
75699;BME280;64313;51.018;13.742;2022-12-29T01:40:55;99035.19;;;8.77;69.08
75699;BME280;64313;51.018;13.742;2022-12-29T01:43:21;99024.75;;;8.75;69.11
75699;BME280;64313;51.018;13.742;2022-12-29T01:45:51;99029.03;;;8.76;69.46
75699;BME280;64313;51.018;13.742;2022-12-29T01:48:19;99024.75;;;8.75;69.34
75699;BME280;64313;51.018;13.742;2022-12-29T01:50:50;99033.53;;;8.76;69.52
75699;BME280;64313;51.018;13.742;2022-12-29T01:53:21;99026.19;;;8.78;69.54
75699;BME280;64313;51.018;13.742;2022-12-29T01:55:54;99026.19;;;8.78;69.80
75699;BME280;64313;51.018;13.742;2022-12-29T01:58:22;99029.66;;;8.78;69.76
75699;BME280;64313;51.018;13.742;2022-12-29T02:00:49;99018.19;;;8.78;69.75
75699;BME280;64313;51.018;13.742;2022-12-29T02:03:16;99014.69;;;8.77;70.19
75699;BME280;64313;51.018;13.742;2022-12-29T02:05:57;99008.16;;;8.80;70.41
75699;BME280;64313;51.018;13.742;2022-12-29T02:08:26;99001.97;;;8.79;70.14
75699;BME280;64313;51.018;13.742;2022-12-29T02:10:53;99000.16;;;8.80;70.35
75699;BME280;64313;51.018;13.742;2022-12-29T02:13:24;98987.03;;;8.78;70.34
75699;BME280;64313;51.018;13.742;2022-12-29T02:16:09;98987.63;;;8.80;70.28
75699;BME280;64313;51.018;13.742;2022-12-29T02:18:54;98975.94;;;8.81;70.32
75699;BME280;64313;51.018;13.742;2022-12-29T02:24:42;98981.69;;;8.85;70.27
75699;BME280;64313;51.018;13.742;2022-12-29T02:27:23;98974.31;;;8.87;70.05
75699;BME280;64313;51.018;13.742;2022-12-29T02:32:52;98975.53;;;8.91;69.87
75699;BME280;64313;51.018;13.742;2022-12-29T02:35:29;98966.53;;;8.92;69.84
75699;BME280;64313;51.018;13.742;2022-12-29T02:49:27;98972.44;;;9.07;69.21
75699;BME280;64313;51.018;13.742;2022-12-29T02:52:03;98961.56;;;9.09;69.32
75699;BME280;64313;51.018;13.742;2022-12-29T02:54:30;98964.22;;;9.09;69.05
75699;BME280;64313;51.018;13.742;2022-12-29T02:57:29;98953.38;;;9.10;69.26
75699;BME280;64313;51.018;13.742;2022-12-29T03:05:38;98964.22;;;9.16;69.04
75699;BME280;64313;51.018;13.742;2022-12-29T03:08:28;98965.84;;;9.17;68.87
75699;BME280;64313;51.018;13.742;2022-12-29T03:11:03;98955.59;;;9.20;68.46
75699;BME280;64313;51.018;13.742;2022-12-29T03:13:39;98943.69;;;9.23;68.49
75699;BME280;64313;51.018;13.742;2022-12-29T03:16:53;98957.00;;;9.29;68.05
75699;BME280;64313;51.018;13.742;2022-12-29T03:19:26;98950.41;;;9.32;67.82
75699;BME280;64313;51.018;13.742;2022-12-29T03:22:04;98954.13;;;9.38;67.73
75699;BME280;64313;51.018;13.742;2022-12-29T03:25:00;98957.97;;;9.42;67.74
75699;BME280;64313;51.018;13.742;2022-12-29T03:27:33;98956.31;;;9.47;67.72
75699;BME280;64313;51.018;13.742;2022-12-29T03:30:02;98953.03;;;9.52;67.31
75699;BME280;64313;51.018;13.742;2022-12-29T03:32:33;98944.00;;;9.53;67.14
75699;BME280;64313;51.018;13.742;2022-12-29T03:35:02;98937.19;;;9.57;67.50
75699;BME280;64313;51.018;13.742;2022-12-29T03:37:32;98922.63;;;9.60;67.03
75699;BME280;64313;51.018;13.742;2022-12-29T03:40:01;98929.38;;;9.62;66.75
75699;BME280;64313;51.018;13.742;2022-12-29T03:42:30;98931.63;;;9.65;66.96
75699;BME280;64313;51.018;13.742;2022-12-29T03:44:57;98921.34;;;9.69;66.54
75699;BME280;64313;51.018;13.742;2022-12-29T03:47:23;98929.97;;;9.71;66.44
75699;BME280;64313;51.018;13.742;2022-12-29T03:49:50;98921.31;;;9.75;66.53
75699;BME280;64313;51.018;13.742;2022-12-29T03:52:16;98917.41;;;9.78;66.56
75699;BME280;64313;51.018;13.742;2022-12-29T03:54:44;98924.38;;;9.79;66.39
75699;BME280;64313;51.018;13.742;2022-12-29T03:57:11;98926.00;;;9.80;66.68
75699;BME280;64313;51.018;13.742;2022-12-29T03:59:59;98909.59;;;9.83;66.22
75699;BME280;64313;51.018;13.742;2022-12-29T04:02:26;98914.69;;;9.85;66.30
75699;BME280;64313;51.018;13.742;2022-12-29T04:04:52;98913.44;;;9.87;66.54
75699;BME280;64313;51.018;13.742;2022-12-29T04:07:18;98906.03;;;9.89;66.38
75699;BME280;64313;51.018;13.742;2022-12-29T04:09:43;98909.31;;;9.91;66.14
75699;BME280;64313;51.018;13.742;2022-12-29T04:12:13;98916.28;;;9.92;66.30
75699;BME280;64313;51.018;13.742;2022-12-29T04:14:40;98904.59;;;9.93;66.27
75699;BME280;64313;51.018;13.742;2022-12-29T04:17:05;98903.53;;;9.94;66.75
75699;BME280;64313;51.018;13.742;2022-12-29T04:19:32;98901.47;;;9.96;66.20
75699;BME280;64313;51.018;13.742;2022-12-29T04:21:57;98905.56;;;9.99;66.46
75699;BME280;64313;51.018;13.742;2022-12-29T04:24:23;98888.75;;;9.99;66.37
75699;BME280;64313;51.018;13.742;2022-12-29T04:26:49;98903.50;;;10.01;66.46
75699;BME280;64313;51.018;13.742;2022-12-29T04:29:49;98898.78;;;10.03;65.89
75699;BME280;64313;51.018;13.742;2022-12-29T04:32:30;98900.41;;;10.04;66.59
75699;BME280;64313;51.018;13.742;2022-12-29T04:34:55;98900.41;;;10.04;66.59
75699;BME280;64313;51.018;13.742;2022-12-29T04:37:21;98904.69;;;10.05;66.54
75699;BME280;64313;51.018;13.742;2022-12-29T04:39:46;98901.81;;;10.07;66.39
75699;BME280;64313;51.018;13.742;2022-12-29T04:42:12;98897.28;;;10.07;66.45
75699;BME280;64313;51.018;13.742;2022-12-29T04:44:38;98903.44;;;10.08;66.45
75699;BME280;64313;51.018;13.742;2022-12-29T04:47:19;98905.09;;;10.09;66.56
75699;BME280;64313;51.018;13.742;2022-12-29T04:49:52;98905.31;;;10.07;66.71
75699;BME280;64313;51.018;13.742;2022-12-29T04:52:38;98907.97;;;10.07;66.57
75699;BME280;64313;51.018;13.742;2022-12-29T04:55:05;98909.63;;;10.08;66.40
75699;BME280;64313;51.018;13.742;2022-12-29T04:57:31;98912.31;;;10.08;66.38
75699;BME280;64313;51.018;13.742;2022-12-29T04:59:58;98914.75;;;10.10;66.80
75699;BME280;64313;51.018;13.742;2022-12-29T05:02:24;98913.91;;;10.09;66.34
75699;BME280;64313;51.018;13.742;2022-12-29T05:04:50;98906.53;;;10.11;66.83
75699;BME280;64313;51.018;13.742;2022-12-29T05:07:16;98905.72;;;10.11;67.22
75699;BME280;64313;51.018;13.742;2022-12-29T05:09:43;98909.19;;;10.11;67.90
75699;BME280;64313;51.018;13.742;2022-12-29T05:12:09;98924.41;;;10.11;68.01
75699;BME280;64313;51.018;13.742;2022-12-29T05:14:39;98918.22;;;10.10;68.58
75699;BME280;64313;51.018;13.742;2022-12-29T05:17:04;98926.47;;;10.09;68.56
75699;BME280;64313;51.018;13.742;2022-12-29T05:19:30;98925.03;;;10.06;68.51
75699;BME280;64313;51.018;13.742;2022-12-29T05:21:55;98919.69;;;10.06;68.13
75699;BME280;64313;51.018;13.742;2022-12-29T05:24:21;98921.31;;;10.07;68.53
75699;BME280;64313;51.018;13.742;2022-12-29T05:26:47;98918.66;;;10.07;68.57
75699;BME280;64313;51.018;13.742;2022-12-29T05:29:31;98906.97;;;10.08;68.41
75699;BME280;64313;51.018;13.742;2022-12-29T05:31:57;98907.97;;;10.07;68.46
75699;BME280;64313;51.018;13.742;2022-12-29T05:34:22;98923.19;;;10.07;68.59
75699;BME280;64313;51.018;13.742;2022-12-29T05:36:48;98919.69;;;10.06;68.87
75699;BME280;64313;51.018;13.742;2022-12-29T05:39:14;98929.34;;;10.07;68.65
75699;BME280;64313;51.018;13.742;2022-12-29T05:41:41;98933.06;;;10.06;68.60
75699;BME280;64313;51.018;13.742;2022-12-29T05:44:25;98935.72;;;10.06;68.69
75699;BME280;64313;51.018;13.742;2022-12-29T05:47:09;98949.88;;;10.07;68.56
75699;BME280;64313;51.018;13.742;2022-12-29T05:49:53;98937.56;;;10.06;68.27
75699;BME280;64313;51.018;13.742;2022-12-29T05:52:27;98937.56;;;10.06;68.26
75699;BME280;64313;51.018;13.742;2022-12-29T05:54:53;98936.75;;;10.05;68.38
75699;BME280;64313;51.018;13.742;2022-12-29T05:57:21;98937.56;;;10.06;68.54
75699;BME280;64313;51.018;13.742;2022-12-29T05:59:56;98932.00;;;10.07;68.36
75699;BME280;64313;51.018;13.742;2022-12-29T06:02:21;98940.81;;;10.08;68.36
75699;BME280;64313;51.018;13.742;2022-12-29T06:04:47;98934.69;;;10.07;68.65
75699;BME280;64313;51.018;13.742;2022-12-29T06:07:12;98943.50;;;10.08;68.32
75699;BME280;64313;51.018;13.742;2022-12-29T06:09:41;98947.81;;;10.09;68.04
75699;BME280;64313;51.018;13.742;2022-12-29T06:12:07;98954.19;;;10.08;68.28
75699;BME280;64313;51.018;13.742;2022-12-29T06:14:33;98954.19;;;10.08;68.49
75699;BME280;64313;51.018;13.742;2022-12-29T06:16:59;98944.53;;;10.07;68.68
75699;BME280;64313;51.018;13.742;2022-12-29T06:19:25;98950.50;;;10.09;68.50
75699;BME280;64313;51.018;13.742;2022-12-29T06:21:50;98949.69;;;10.08;68.48
75699;BME280;64313;51.018;13.742;2022-12-29T06:24:18;98945.34;;;10.07;68.46
75699;BME280;64313;51.018;13.742;2022-12-29T06:26:43;98957.69;;;10.08;68.84
75699;BME280;64313;51.018;13.742;2022-12-29T06:29:08;98947.00;;;10.08;68.23
75699;BME280;64313;51.018;13.742;2022-12-29T06:31:34;98955.03;;;10.08;68.40
75699;BME280;64313;51.018;13.742;2022-12-29T06:34:00;98944.91;;;10.10;68.15
75699;BME280;64313;51.018;13.742;2022-12-29T06:36:26;98933.44;;;10.10;68.33
75699;BME280;64313;51.018;13.742;2022-12-29T06:38:51;98932.63;;;10.09;68.01
75699;BME280;64313;51.018;13.742;2022-12-29T06:41:19;98928.91;;;10.10;68.38
75699;BME280;64313;51.018;13.742;2022-12-29T06:44:04;98931.56;;;10.10;67.70
75699;BME280;64313;51.018;13.742;2022-12-29T06:46:48;98928.09;;;10.10;67.82
75699;BME280;64313;51.018;13.742;2022-12-29T06:49:14;98933.66;;;10.08;67.86
75699;BME280;64313;51.018;13.742;2022-12-29T06:51:39;98932.81;;;10.08;67.66
75699;BME280;64313;51.018;13.742;2022-12-29T06:54:05;98929.34;;;10.07;67.59
75699;BME280;64313;51.018;13.742;2022-12-29T06:56:30;98928.53;;;10.07;67.21
75699;BME280;64313;51.018;13.742;2022-12-29T06:58:56;98935.72;;;10.06;67.62
75699;BME280;64313;51.018;13.742;2022-12-29T07:01:21;98931.41;;;10.05;67.38
75699;BME280;64313;51.018;13.742;2022-12-29T07:03:46;98935.94;;;10.05;67.68
75699;BME280;64313;51.018;13.742;2022-12-29T07:06:12;98941.50;;;10.03;67.46
75699;BME280;64313;51.018;13.742;2022-12-29T07:08:37;98929.16;;;10.02;67.57
75699;BME280;64313;51.018;13.742;2022-12-29T07:11:04;98924.63;;;10.03;67.46
75699;BME280;64313;51.018;13.742;2022-12-29T07:13:29;98922.81;;;10.03;67.52
75699;BME280;64313;51.018;13.742;2022-12-29T07:15:55;98936.16;;;10.03;67.64
75699;BME280;64313;51.018;13.742;2022-12-29T07:18:20;98940.44;;;10.04;67.51
75699;BME280;64313;51.018;13.742;2022-12-29T07:20:45;98939.63;;;10.04;67.69
75699;BME280;64313;51.018;13.742;2022-12-29T07:23:11;98961.81;;;10.04;67.46
75699;BME280;64313;51.018;13.742;2022-12-29T07:25:36;98954.41;;;10.06;67.49
75699;BME280;64313;51.018;13.742;2022-12-29T07:28:02;98953.38;;;10.07;67.54
75699;BME280;64313;51.018;13.742;2022-12-29T07:30:28;98966.72;;;10.07;67.53
75699;BME280;64313;51.018;13.742;2022-12-29T07:32:53;98963.25;;;10.07;67.54
75699;BME280;64313;51.018;13.742;2022-12-29T07:35:19;98961.38;;;10.07;67.70
75699;BME280;64313;51.018;13.742;2022-12-29T07:37:44;98949.69;;;10.08;67.72
75699;BME280;64313;51.018;13.742;2022-12-29T07:40:10;98947.81;;;10.09;67.73
75699;BME280;64313;51.018;13.742;2022-12-29T07:42:36;98940.81;;;10.08;67.83
75699;BME280;64313;51.018;13.742;2022-12-29T07:45:02;98935.28;;;10.09;67.99
75699;BME280;64313;51.018;13.742;2022-12-29T07:47:49;98931.56;;;10.10;68.00
75699;BME280;64313;51.018;13.742;2022-12-29T07:50:15;98934.25;;;10.10;67.89
75699;BME280;64313;51.018;13.742;2022-12-29T07:52:40;98943.09;;;10.11;67.89
75699;BME280;64313;51.018;13.742;2022-12-29T07:55:06;98930.56;;;10.11;67.87
75699;BME280;64313;51.018;13.742;2022-12-29T07:57:31;98933.22;;;10.11;67.83
75699;BME280;64313;51.018;13.742;2022-12-29T07:59:57;98941.84;;;10.13;67.95
75699;BME280;64313;51.018;13.742;2022-12-29T08:02:22;98945.13;;;10.15;67.69
75699;BME280;64313;51.018;13.742;2022-12-29T08:04:48;98937.69;;;10.17;67.45
75699;BME280;64313;51.018;13.742;2022-12-29T08:07:13;98941.19;;;10.18;67.27
75699;BME280;64313;51.018;13.742;2022-12-29T08:09:38;98945.50;;;10.19;67.25
75699;BME280;64313;51.018;13.742;2022-12-29T08:12:04;98951.44;;;10.21;67.29
75699;BME280;64313;51.018;13.742;2022-12-29T08:14:29;98960.28;;;10.22;67.13
75699;BME280;64313;51.018;13.742;2022-12-29T08:16:54;98966.84;;;10.26;66.43
75699;BME280;64313;51.018;13.742;2022-12-29T08:19:20;98978.97;;;10.28;66.84
75699;BME280;64313;51.018;13.742;2022-12-29T08:21:45;98972.94;;;10.33;66.55
75699;BME280;64313;51.018;13.742;2022-12-29T08:24:11;98970.88;;;10.35;65.81
75699;BME280;64313;51.018;13.742;2022-12-29T08:26:36;98971.50;;;10.37;66.07
75699;BME280;64313;51.018;13.742;2022-12-29T08:29:01;98983.00;;;10.37;66.09
75699;BME280;64313;51.018;13.742;2022-12-29T08:31:27;98973.53;;;10.42;65.80
75699;BME280;64313;51.018;13.742;2022-12-29T08:33:52;98975.97;;;10.43;66.26
75699;BME280;64313;51.018;13.742;2022-12-29T08:36:17;98980.06;;;10.46;65.41
75699;BME280;64313;51.018;13.742;2022-12-29T08:38:43;98985.81;;;10.49;65.95
75699;BME280;64313;51.018;13.742;2022-12-29T08:41:08;98984.75;;;10.50;65.51
75699;BME280;64313;51.018;13.742;2022-12-29T08:43:33;98988.03;;;10.52;65.58
75699;BME280;64313;51.018;13.742;2022-12-29T08:45:59;98988.63;;;10.54;65.43
75699;BME280;64313;51.018;13.742;2022-12-29T08:48:26;98985.97;;;10.54;65.21
75699;BME280;64313;51.018;13.742;2022-12-29T08:50:52;98987.38;;;10.57;65.48
75699;BME280;64313;51.018;13.742;2022-12-29T08:53:18;98994.16;;;10.59;65.36
75699;BME280;64313;51.018;13.742;2022-12-29T08:55:47;98982.22;;;10.62;64.39
75699;BME280;64313;51.018;13.742;2022-12-29T08:58:19;98982.00;;;10.64;64.63
75699;BME280;64313;51.018;13.742;2022-12-29T09:00:44;98981.16;;;10.63;64.56
75699;BME280;64313;51.018;13.742;2022-12-29T09:03:10;98972.94;;;10.65;64.46
75699;BME280;64313;51.018;13.742;2022-12-29T09:05:35;98976.22;;;10.67;64.28
75699;BME280;64313;51.018;13.742;2022-12-29T09:08:01;98967.16;;;10.68;64.13
75699;BME280;64313;51.018;13.742;2022-12-29T09:10:26;98964.28;;;10.69;64.50
75699;BME280;64313;51.018;13.742;2022-12-29T09:12:51;98958.28;;;10.74;64.13
75699;BME280;64313;51.018;13.742;2022-12-29T09:15:17;98955.16;;;10.77;63.68
75699;BME280;64313;51.018;13.742;2022-12-29T09:17:42;98950.63;;;10.77;63.41
75699;BME280;64313;51.018;13.742;2022-12-29T09:20:18;98954.72;;;10.80;63.74
75699;BME280;64313;51.018;13.742;2022-12-29T09:22:44;98956.38;;;10.81;63.96
75699;BME280;64313;51.018;13.742;2022-12-29T09:25:10;98949.16;;;10.81;63.64
75699;BME280;64313;51.018;13.742;2022-12-29T09:27:37;98946.47;;;10.81;63.62
75699;BME280;64313;51.018;13.742;2022-12-29T09:30:04;98935.56;;;10.83;63.78
75699;BME280;64313;51.018;13.742;2022-12-29T09:32:31;98936.41;;;10.83;63.33
75699;BME280;64313;51.018;13.742;2022-12-29T09:34:57;98943.97;;;10.87;63.35
75699;BME280;64313;51.018;13.742;2022-12-29T09:37:22;98944.78;;;10.87;63.28
75699;BME280;64313;51.018;13.742;2022-12-29T09:39:48;98941.06;;;10.88;62.99
75699;BME280;64313;51.018;13.742;2022-12-29T09:42:18;98957.50;;;10.92;63.21
75699;BME280;64313;51.018;13.742;2022-12-29T09:44:51;98949.47;;;10.92;63.03
75699;BME280;64313;51.018;13.742;2022-12-29T09:47:23;98953.78;;;10.93;63.18
75699;BME280;64313;51.018;13.742;2022-12-29T09:49:54;98950.06;;;10.94;63.01
75699;BME280;64313;51.018;13.742;2022-12-29T09:52:23;98958.31;;;10.92;63.10
75699;BME280;64313;51.018;13.742;2022-12-29T09:54:58;98964.47;;;10.93;63.24
75699;BME280;64313;51.018;13.742;2022-12-29T09:57:40;98971.47;;;10.94;62.92
75699;BME280;64313;51.018;13.742;2022-12-29T10:00:21;98960.53;;;10.95;62.36
75699;BME280;64313;51.018;13.742;2022-12-29T10:02:54;98957.84;;;10.95;62.45
75699;BME280;64313;51.018;13.742;2022-12-29T10:08:45;98952.50;;;10.95;62.57
75699;BME280;64313;51.018;13.742;2022-12-29T10:14:08;98965.59;;;11.03;62.06
75699;BME280;64313;51.018;13.742;2022-12-29T10:16:53;98953.44;;;11.08;62.40
75699;BME280;64313;51.018;13.742;2022-12-29T10:19:26;98948.22;;;11.13;62.00
75699;BME280;64313;51.018;13.742;2022-12-29T10:21:57;98948.38;;;11.18;62.41
75699;BME280;64313;51.018;13.742;2022-12-29T10:24:29;98952.41;;;11.27;61.66
75699;BME280;64313;51.018;13.742;2022-12-29T10:26:58;98947.81;;;11.34;61.24
75699;BME280;64313;51.018;13.742;2022-12-29T10:29:32;98947.94;;;11.39;61.68
75699;BME280;64313;51.018;13.742;2022-12-29T10:32:06;98947.84;;;11.46;60.78
75699;BME280;64313;51.018;13.742;2022-12-29T10:34:43;98935.88;;;11.48;60.66
75699;BME280;64313;51.018;13.742;2022-12-29T10:39:49;98940.34;;;11.55;60.97
75699;BME280;64313;51.018;13.742;2022-12-29T10:42:36;98951.22;;;11.60;60.87
75699;BME280;64313;51.018;13.742;2022-12-29T10:45:03;98941.91;;;11.62;61.25
75699;BME280;64313;51.018;13.742;2022-12-29T10:47:34;98935.03;;;11.66;61.02
75699;BME280;64313;51.018;13.742;2022-12-29T10:50:04;98929.25;;;11.69;60.87
75699;BME280;64313;51.018;13.742;2022-12-29T10:52:30;98920.97;;;11.71;60.67
75699;BME280;64313;51.018;13.742;2022-12-29T10:55:00;98920.53;;;11.74;60.45
75699;BME280;64313;51.018;13.742;2022-12-29T10:57:36;98909.59;;;11.76;60.62
75699;BME280;64313;51.018;13.742;2022-12-29T11:03:13;98909.53;;;11.82;61.00
75699;BME280;64313;51.018;13.742;2022-12-29T11:08:36;98908.75;;;11.94;60.80
75699;BME280;64313;51.018;13.742;2022-12-29T11:11:05;98914.25;;;11.99;61.27
75699;BME280;64313;51.018;13.742;2022-12-29T11:16:12;98913.50;;;12.10;61.50
75699;BME280;64313;51.018;13.742;2022-12-29T11:18:39;98911.97;;;12.14;61.01
75699;BME280;64313;51.018;13.742;2022-12-29T11:21:30;98916.03;;;12.17;61.19
75699;BME280;64313;51.018;13.742;2022-12-29T11:24:02;98906.72;;;12.19;60.95
75699;BME280;64313;51.018;13.742;2022-12-29T11:26:29;98901.16;;;12.21;60.16
75699;BME280;64313;51.018;13.742;2022-12-29T11:31:46;98910.00;;;12.21;60.29
75699;BME280;64313;51.018;13.742;2022-12-29T11:34:22;98910.81;;;12.22;60.50
75699;BME280;64313;51.018;13.742;2022-12-29T11:36:50;98910.59;;;12.23;60.40
75699;BME280;64313;51.018;13.742;2022-12-29T11:39:44;98899.66;;;12.25;60.96
75699;BME280;64313;51.018;13.742;2022-12-29T11:42:16;98904.56;;;12.28;60.72
75699;BME280;64313;51.018;13.742;2022-12-29T11:44:45;98897.91;;;12.30;60.41
75699;BME280;64313;51.018;13.742;2022-12-29T11:47:21;98907.56;;;12.31;60.63
75699;BME280;64313;51.018;13.742;2022-12-29T11:49:52;98896.84;;;12.31;60.42
75699;BME280;64313;51.018;13.742;2022-12-29T11:52:24;98896.63;;;12.33;61.00
75699;BME280;64313;51.018;13.742;2022-12-29T11:54:52;98903.63;;;12.34;61.00
75699;BME280;64313;51.018;13.742;2022-12-29T11:57:19;98903.16;;;12.37;60.23
75699;BME280;64313;51.018;13.742;2022-12-29T11:59:54;98897.78;;;12.37;59.95
75699;BME280;64313;51.018;13.742;2022-12-29T12:05:30;98886.03;;;12.38;59.44
75699;BME280;64313;51.018;13.742;2022-12-29T12:08:12;98884.16;;;12.39;59.79
75699;BME280;64313;51.018;13.742;2022-12-29T12:10:46;98883.38;;;12.38;59.26
75699;BME280;64313;51.018;13.742;2022-12-29T12:13:29;98872.66;;;12.38;60.15
75699;BME280;64313;51.018;13.742;2022-12-29T12:16:18;98889.75;;;12.37;59.40
75699;BME280;64313;51.018;13.742;2022-12-29T12:18:52;98893.50;;;12.36;59.86
75699;BME280;64313;51.018;13.742;2022-12-29T12:21:31;98890.00;;;12.36;59.50
75699;BME280;64313;51.018;13.742;2022-12-29T12:24:12;98877.41;;;12.36;59.64
75699;BME280;64313;51.018;13.742;2022-12-29T12:29:39;98879.28;;;12.36;59.32
75699;BME280;64313;51.018;13.742;2022-12-29T12:32:16;98880.91;;;12.37;58.96
75699;BME280;64313;51.018;13.742;2022-12-29T12:34:44;98889.75;;;12.37;59.08
75699;BME280;64313;51.018;13.742;2022-12-29T12:40:27;98881.16;;;12.35;59.36
75699;BME280;64313;51.018;13.742;2022-12-29T12:46:01;98881.97;;;12.36;58.83
75699;BME280;64313;51.018;13.742;2022-12-29T12:48:48;98871.25;;;12.36;58.84
75699;BME280;64313;51.018;13.742;2022-12-29T12:54:43;98868.56;;;12.36;59.06
75699;BME280;64313;51.018;13.742;2022-12-29T12:57:28;98861.13;;;12.38;58.56
75699;BME280;64313;51.018;13.742;2022-12-29T13:00:07;98859.25;;;12.38;59.25
75699;BME280;64313;51.018;13.742;2022-12-29T13:02:40;98860.88;;;12.39;58.84
75699;BME280;64313;51.018;13.742;2022-12-29T13:08:11;98853.19;;;12.43;58.67
75699;BME280;64313;51.018;13.742;2022-12-29T13:10:57;98865.31;;;12.45;58.81
75699;BME280;64313;51.018;13.742;2022-12-29T13:13:47;98854.94;;;12.49;58.74
75699;BME280;64313;51.018;13.742;2022-12-29T13:16:54;98856.22;;;12.58;58.49
75699;BME280;64313;51.018;13.742;2022-12-29T13:19:48;98857.25;;;12.69;58.59
75699;BME280;64313;51.018;13.742;2022-12-29T13:22:22;98853.19;;;12.78;58.13
75699;BME280;64313;51.018;13.742;2022-12-29T13:30:35;98850.91;;;13.10;56.57
75699;BME280;64313;51.018;13.742;2022-12-29T13:33:19;98863.84;;;13.13;56.89
75699;BME280;64313;51.018;13.742;2022-12-29T13:36:00;98868.63;;;13.11;57.06
75699;BME280;64313;51.018;13.742;2022-12-29T13:38:43;98867.81;;;13.11;56.31
75699;BME280;64313;51.018;13.742;2022-12-29T13:41:16;98867.47;;;13.07;56.73
75699;BME280;64313;51.018;13.742;2022-12-29T13:43:45;98862.34;;;13.06;56.60
75699;BME280;64313;51.018;13.742;2022-12-29T13:46:15;98866.78;;;13.00;56.65
75699;BME280;64313;51.018;13.742;2022-12-29T13:48:54;98869.94;;;12.97;56.58
75699;BME280;64313;51.018;13.742;2022-12-29T13:51:22;98869.59;;;12.93;56.96
75699;BME280;64313;51.018;13.742;2022-12-29T13:54:09;98879.97;;;12.90;57.55
75699;BME280;64313;51.018;13.742;2022-12-29T14:00:12;98882.44;;;12.80;57.18
75699;BME280;64313;51.018;13.742;2022-12-29T14:05:29;98877.66;;;12.70;57.38
75699;BME280;64313;51.018;13.742;2022-12-29T14:08:03;98871.47;;;12.69;57.70
75699;BME280;64313;51.018;13.742;2022-12-29T14:10:48;98872.75;;;12.67;57.78
75699;BME280;64313;51.018;13.742;2022-12-29T14:13:19;98886.84;;;12.62;57.78
75699;BME280;64313;51.018;13.742;2022-12-29T14:15:49;98886.31;;;12.60;57.86
75699;BME280;64313;51.018;13.742;2022-12-29T14:18:21;98885.94;;;12.56;58.17
75699;BME280;64313;51.018;13.742;2022-12-29T14:21:05;98895.25;;;12.54;58.20
75699;BME280;64313;51.018;13.742;2022-12-29T14:23:38;98891.19;;;12.51;58.27
75699;BME280;64313;51.018;13.742;2022-12-29T14:28:40;98898.28;;;12.46;58.41
75699;BME280;64313;51.018;13.742;2022-12-29T14:33:41;98889.88;;;12.42;58.31